sensor_id;sensor_type;location;lat;lon;timestamp;P1;durP1;ratioP1;P2;durP2;ratioP2
15555;SDS011;7879;48.660;9.116;2024-03-08T00:01:46;0.30;;;0.30;;
15555;SDS011;7879;48.660;9.116;2024-03-08T00:04:12;0.30;;;0.30;;
15555;SDS011;7879;48.660;9.116;2024-03-08T00:06:41;0.30;;;0.30;;
15555;SDS011;7879;48.660;9.116;2024-03-08T00:09:10;0.30;;;0.30;;
15555;SDS011;7879;48.660;9.116;2024-03-08T00:11:37;0.30;;;0.30;;
15555;SDS011;7879;48.660;9.116;2024-03-08T00:14:04;0.30;;;0.30;;
15555;SDS011;7879;48.660;9.116;2024-03-08T00:16:33;0.30;;;0.30;;
15555;SDS011;7879;48.660;9.116;2024-03-08T00:19:01;0.30;;;0.30;;
15555;SDS011;7879;48.660;9.116;2024-03-08T00:21:28;0.30;;;0.30;;
15555;SDS011;7879;48.660;9.116;2024-03-08T00:23:56;0.30;;;0.30;;
15555;SDS011;7879;48.660;9.116;2024-03-08T00:26:22;0.30;;;0.30;;
15555;SDS011;7879;48.660;9.116;2024-03-08T00:28:49;0.30;;;0.30;;
15555;SDS011;7879;48.660;9.116;2024-03-08T00:31:16;0.30;;;0.30;;
15555;SDS011;7879;48.660;9.116;2024-03-08T00:33:43;0.30;;;0.30;;
15555;SDS011;7879;48.660;9.116;2024-03-08T00:36:10;0.30;;;0.30;;
15555;SDS011;7879;48.660;9.116;2024-03-08T00:38:37;0.30;;;0.30;;
15555;SDS011;7879;48.660;9.116;2024-03-08T00:41:05;0.30;;;0.30;;
15555;SDS011;7879;48.660;9.116;2024-03-08T00:43:32;0.30;;;0.30;;
15555;SDS011;7879;48.660;9.116;2024-03-08T00:45:58;0.30;;;0.30;;
15555;SDS011;7879;48.660;9.116;2024-03-08T00:48:25;0.30;;;0.30;;
15555;SDS011;7879;48.660;9.116;2024-03-08T00:50:52;0.30;;;0.30;;
15555;SDS011;7879;48.660;9.116;2024-03-08T00:53:19;0.30;;;0.30;;
15555;SDS011;7879;48.660;9.116;2024-03-08T00:55:46;0.30;;;0.30;;
15555;SDS011;7879;48.660;9.116;2024-03-08T00:58:13;0.30;;;0.30;;
15555;SDS011;7879;48.660;9.116;2024-03-08T01:00:40;0.30;;;0.30;;
15555;SDS011;7879;48.660;9.116;2024-03-08T01:03:07;0.30;;;0.30;;
15555;SDS011;7879;48.660;9.116;2024-03-08T01:05:34;0.40;;;0.40;;
15555;SDS011;7879;48.660;9.116;2024-03-08T01:08:01;0.30;;;0.30;;
15555;SDS011;7879;48.660;9.116;2024-03-08T01:10:29;0.30;;;0.30;;
15555;SDS011;7879;48.660;9.116;2024-03-08T01:12:56;0.30;;;0.30;;
15555;SDS011;7879;48.660;9.116;2024-03-08T01:15:25;0.30;;;0.30;;
15555;SDS011;7879;48.660;9.116;2024-03-08T01:17:52;0.30;;;0.30;;
15555;SDS011;7879;48.660;9.116;2024-03-08T01:20:20;0.30;;;0.30;;
15555;SDS011;7879;48.660;9.116;2024-03-08T01:22:47;0.30;;;0.30;;
15555;SDS011;7879;48.660;9.116;2024-03-08T01:25:14;0.30;;;0.30;;
15555;SDS011;7879;48.660;9.116;2024-03-08T01:27:40;0.30;;;0.30;;
15555;SDS011;7879;48.660;9.116;2024-03-08T01:30:07;0.30;;;0.30;;
15555;SDS011;7879;48.660;9.116;2024-03-08T01:32:36;0.30;;;0.30;;
15555;SDS011;7879;48.660;9.116;2024-03-08T01:35:03;0.30;;;0.30;;
15555;SDS011;7879;48.660;9.116;2024-03-08T01:37:30;0.30;;;0.30;;
15555;SDS011;7879;48.660;9.116;2024-03-08T01:39:56;0.30;;;0.30;;
15555;SDS011;7879;48.660;9.116;2024-03-08T01:42:23;0.30;;;0.30;;
15555;SDS011;7879;48.660;9.116;2024-03-08T01:44:50;0.30;;;0.30;;
15555;SDS011;7879;48.660;9.116;2024-03-08T01:47:17;0.30;;;0.30;;
15555;SDS011;7879;48.660;9.116;2024-03-08T01:49:46;0.30;;;0.30;;
15555;SDS011;7879;48.660;9.116;2024-03-08T01:52:13;0.30;;;0.30;;
15555;SDS011;7879;48.660;9.116;2024-03-08T01:54:41;0.30;;;0.30;;
15555;SDS011;7879;48.660;9.116;2024-03-08T01:57:08;0.32;;;0.32;;
15555;SDS011;7879;48.660;9.116;2024-03-08T01:59:35;0.35;;;0.35;;
15555;SDS011;7879;48.660;9.116;2024-03-08T02:02:02;0.30;;;0.30;;
15555;SDS011;7879;48.660;9.116;2024-03-08T02:04:30;0.38;;;0.38;;
15555;SDS011;7879;48.660;9.116;2024-03-08T02:06:57;0.40;;;0.40;;
15555;SDS011;7879;48.660;9.116;2024-03-08T02:09:24;0.30;;;0.30;;
15555;SDS011;7879;48.660;9.116;2024-03-08T02:11:51;0.30;;;0.30;;
15555;SDS011;7879;48.660;9.116;2024-03-08T02:14:21;0.30;;;0.30;;
15555;SDS011;7879;48.660;9.116;2024-03-08T02:16:48;0.28;;;0.28;;
15555;SDS011;7879;48.660;9.116;2024-03-08T02:19:15;0.22;;;0.22;;
15555;SDS011;7879;48.660;9.116;2024-03-08T02:21:41;0.30;;;0.30;;
15555;SDS011;7879;48.660;9.116;2024-03-08T02:24:08;0.30;;;0.30;;
15555;SDS011;7879;48.660;9.116;2024-03-08T02:26:36;0.30;;;0.30;;
15555;SDS011;7879;48.660;9.116;2024-03-08T02:29:03;0.30;;;0.30;;
15555;SDS011;7879;48.660;9.116;2024-03-08T02:31:31;0.30;;;0.30;;
15555;SDS011;7879;48.660;9.116;2024-03-08T02:33:58;0.30;;;0.30;;
15555;SDS011;7879;48.660;9.116;2024-03-08T02:36:25;0.30;;;0.30;;
15555;SDS011;7879;48.660;9.116;2024-03-08T02:38:52;0.30;;;0.30;;
15555;SDS011;7879;48.660;9.116;2024-03-08T02:41:21;0.30;;;0.30;;
15555;SDS011;7879;48.660;9.116;2024-03-08T02:43:48;0.30;;;0.30;;
15555;SDS011;7879;48.660;9.116;2024-03-08T02:46:16;0.40;;;0.40;;
15555;SDS011;7879;48.660;9.116;2024-03-08T02:48:43;0.40;;;0.40;;
15555;SDS011;7879;48.660;9.116;2024-03-08T02:51:10;0.30;;;0.30;;
15555;SDS011;7879;48.660;9.116;2024-03-08T02:53:37;0.30;;;0.30;;
15555;SDS011;7879;48.660;9.116;2024-03-08T02:56:04;0.30;;;0.30;;
15555;SDS011;7879;48.660;9.116;2024-03-08T02:58:34;0.22;;;0.22;;
15555;SDS011;7879;48.660;9.116;2024-03-08T03:01:01;0.20;;;0.20;;
15555;SDS011;7879;48.660;9.116;2024-03-08T03:03:28;0.30;;;0.30;;
15555;SDS011;7879;48.660;9.116;2024-03-08T03:05:55;0.30;;;0.30;;
15555;SDS011;7879;48.660;9.116;2024-03-08T03:08:22;0.30;;;0.30;;
15555;SDS011;7879;48.660;9.116;2024-03-08T03:10:50;0.30;;;0.30;;
15555;SDS011;7879;48.660;9.116;2024-03-08T03:13:17;0.30;;;0.30;;
15555;SDS011;7879;48.660;9.116;2024-03-08T03:15:46;0.30;;;0.30;;
15555;SDS011;7879;48.660;9.116;2024-03-08T03:18:13;0.30;;;0.30;;
15555;SDS011;7879;48.660;9.116;2024-03-08T03:20:40;0.30;;;0.30;;
15555;SDS011;7879;48.660;9.116;2024-03-08T03:23:09;0.30;;;0.30;;
15555;SDS011;7879;48.660;9.116;2024-03-08T03:25:40;0.40;;;0.40;;
15555;SDS011;7879;48.660;9.116;2024-03-08T03:28:07;0.40;;;0.40;;
15555;SDS011;7879;48.660;9.116;2024-03-08T03:30:37;0.32;;;0.32;;
15555;SDS011;7879;48.660;9.116;2024-03-08T03:33:05;0.30;;;0.30;;
15555;SDS011;7879;48.660;9.116;2024-03-08T03:35:36;0.20;;;0.20;;
15555;SDS011;7879;48.660;9.116;2024-03-08T03:38:04;0.20;;;0.20;;
15555;SDS011;7879;48.660;9.116;2024-03-08T03:40:37;0.30;;;0.30;;
15555;SDS011;7879;48.660;9.116;2024-03-08T03:43:05;0.30;;;0.30;;
15555;SDS011;7879;48.660;9.116;2024-03-08T03:45:32;0.30;;;0.30;;
15555;SDS011;7879;48.660;9.116;2024-03-08T03:48:03;0.30;;;0.30;;
15555;SDS011;7879;48.660;9.116;2024-03-08T03:50:33;0.30;;;0.30;;
15555;SDS011;7879;48.660;9.116;2024-03-08T03:53:01;0.30;;;0.30;;
15555;SDS011;7879;48.660;9.116;2024-03-08T03:55:29;0.30;;;0.30;;
15555;SDS011;7879;48.660;9.116;2024-03-08T03:57:55;0.30;;;0.30;;
15555;SDS011;7879;48.660;9.116;2024-03-08T04:00:22;0.40;;;0.40;;
15555;SDS011;7879;48.660;9.116;2024-03-08T04:02:49;0.40;;;0.40;;
15555;SDS011;7879;48.660;9.116;2024-03-08T04:05:17;0.32;;;0.32;;
15555;SDS011;7879;48.660;9.116;2024-03-08T04:07:44;0.23;;;0.23;;
15555;SDS011;7879;48.660;9.116;2024-03-08T04:10:11;0.28;;;0.28;;
15555;SDS011;7879;48.660;9.116;2024-03-08T04:12:38;0.30;;;0.30;;
15555;SDS011;7879;48.660;9.116;2024-03-08T04:15:05;0.20;;;0.20;;
15555;SDS011;7879;48.660;9.116;2024-03-08T04:17:37;0.30;;;0.30;;
15555;SDS011;7879;48.660;9.116;2024-03-08T04:20:05;0.30;;;0.30;;
15555;SDS011;7879;48.660;9.116;2024-03-08T04:22:40;0.30;;;0.30;;
15555;SDS011;7879;48.660;9.116;2024-03-08T04:25:08;0.30;;;0.30;;
15555;SDS011;7879;48.660;9.116;2024-03-08T04:27:35;0.30;;;0.30;;
15555;SDS011;7879;48.660;9.116;2024-03-08T04:30:02;0.30;;;0.30;;
15555;SDS011;7879;48.660;9.116;2024-03-08T04:32:30;0.30;;;0.30;;
15555;SDS011;7879;48.660;9.116;2024-03-08T04:34:59;0.30;;;0.30;;
15555;SDS011;7879;48.660;9.116;2024-03-08T04:37:30;0.30;;;0.30;;
15555;SDS011;7879;48.660;9.116;2024-03-08T04:39:58;0.40;;;0.40;;
15555;SDS011;7879;48.660;9.116;2024-03-08T04:42:26;0.40;;;0.40;;
15555;SDS011;7879;48.660;9.116;2024-03-08T04:44:54;0.30;;;0.30;;
15555;SDS011;7879;48.660;9.116;2024-03-08T04:47:21;0.20;;;0.20;;
15555;SDS011;7879;48.660;9.116;2024-03-08T04:49:48;0.30;;;0.30;;
15555;SDS011;7879;48.660;9.116;2024-03-08T04:52:16;0.30;;;0.30;;
15555;SDS011;7879;48.660;9.116;2024-03-08T04:54:43;0.30;;;0.30;;
15555;SDS011;7879;48.660;9.116;2024-03-08T04:57:13;0.30;;;0.30;;
15555;SDS011;7879;48.660;9.116;2024-03-08T04:59:40;0.30;;;0.30;;
15555;SDS011;7879;48.660;9.116;2024-03-08T05:02:07;0.30;;;0.30;;
15555;SDS011;7879;48.660;9.116;2024-03-08T05:04:34;0.40;;;0.40;;
15555;SDS011;7879;48.660;9.116;2024-03-08T05:07:01;0.30;;;0.30;;
15555;SDS011;7879;48.660;9.116;2024-03-08T05:09:28;0.30;;;0.30;;
15555;SDS011;7879;48.660;9.116;2024-03-08T05:11:58;0.30;;;0.30;;
15555;SDS011;7879;48.660;9.116;2024-03-08T05:14:26;0.30;;;0.30;;
15555;SDS011;7879;48.660;9.116;2024-03-08T05:16:54;0.30;;;0.30;;
15555;SDS011;7879;48.660;9.116;2024-03-08T05:19:21;0.30;;;0.30;;
15555;SDS011;7879;48.660;9.116;2024-03-08T05:21:48;0.40;;;0.40;;
15555;SDS011;7879;48.660;9.116;2024-03-08T05:24:16;0.40;;;0.40;;
15555;SDS011;7879;48.660;9.116;2024-03-08T05:26:45;0.40;;;0.40;;
15555;SDS011;7879;48.660;9.116;2024-03-08T05:29:13;0.40;;;0.40;;
15555;SDS011;7879;48.660;9.116;2024-03-08T05:31:47;0.22;;;0.22;;
15555;SDS011;7879;48.660;9.116;2024-03-08T05:34:16;0.30;;;0.30;;
15555;SDS011;7879;48.660;9.116;2024-03-08T05:36:43;0.30;;;0.30;;
15555;SDS011;7879;48.660;9.116;2024-03-08T05:39:11;0.33;;;0.33;;
15555;SDS011;7879;48.660;9.116;2024-03-08T05:41:39;0.40;;;0.40;;
15555;SDS011;7879;48.660;9.116;2024-03-08T05:44:06;0.40;;;0.40;;
15555;SDS011;7879;48.660;9.116;2024-03-08T05:46:34;0.40;;;0.40;;
15555;SDS011;7879;48.660;9.116;2024-03-08T05:49:02;0.30;;;0.30;;
15555;SDS011;7879;48.660;9.116;2024-03-08T05:51:32;0.30;;;0.30;;
15555;SDS011;7879;48.660;9.116;2024-03-08T05:54:02;0.30;;;0.30;;
15555;SDS011;7879;48.660;9.116;2024-03-08T05:56:32;0.40;;;0.40;;
15555;SDS011;7879;48.660;9.116;2024-03-08T05:58:59;0.40;;;0.40;;
15555;SDS011;7879;48.660;9.116;2024-03-08T06:01:26;0.40;;;0.40;;
15555;SDS011;7879;48.660;9.116;2024-03-08T06:03:54;0.30;;;0.30;;
15555;SDS011;7879;48.660;9.116;2024-03-08T06:06:24;0.30;;;0.30;;
15555;SDS011;7879;48.660;9.116;2024-03-08T06:08:52;0.30;;;0.30;;
15555;SDS011;7879;48.660;9.116;2024-03-08T06:11:19;0.30;;;0.30;;
15555;SDS011;7879;48.660;9.116;2024-03-08T06:13:47;0.40;;;0.40;;
15555;SDS011;7879;48.660;9.116;2024-03-08T06:16:14;0.40;;;0.40;;
15555;SDS011;7879;48.660;9.116;2024-03-08T06:18:41;0.40;;;0.40;;
15555;SDS011;7879;48.660;9.116;2024-03-08T06:21:09;0.30;;;0.30;;
15555;SDS011;7879;48.660;9.116;2024-03-08T06:23:37;0.30;;;0.30;;
15555;SDS011;7879;48.660;9.116;2024-03-08T06:26:05;0.30;;;0.30;;
15555;SDS011;7879;48.660;9.116;2024-03-08T06:28:32;0.30;;;0.30;;
15555;SDS011;7879;48.660;9.116;2024-03-08T06:30:59;0.30;;;0.30;;
15555;SDS011;7879;48.660;9.116;2024-03-08T06:33:26;0.40;;;0.40;;
15555;SDS011;7879;48.660;9.116;2024-03-08T06:35:54;0.40;;;0.40;;
15555;SDS011;7879;48.660;9.116;2024-03-08T06:38:24;0.30;;;0.30;;
15555;SDS011;7879;48.660;9.116;2024-03-08T06:40:51;0.30;;;0.30;;
15555;SDS011;7879;48.660;9.116;2024-03-08T06:43:19;0.30;;;0.30;;
15555;SDS011;7879;48.660;9.116;2024-03-08T06:45:46;0.30;;;0.30;;
15555;SDS011;7879;48.660;9.116;2024-03-08T06:48:16;0.30;;;0.30;;
15555;SDS011;7879;48.660;9.116;2024-03-08T06:50:44;0.30;;;0.30;;
15555;SDS011;7879;48.660;9.116;2024-03-08T06:53:12;0.30;;;0.30;;
15555;SDS011;7879;48.660;9.116;2024-03-08T06:55:40;0.30;;;0.30;;
15555;SDS011;7879;48.660;9.116;2024-03-08T06:58:07;0.30;;;0.30;;
15555;SDS011;7879;48.660;9.116;2024-03-08T07:00:34;0.30;;;0.30;;
15555;SDS011;7879;48.660;9.116;2024-03-08T07:03:01;0.30;;;0.30;;
15555;SDS011;7879;48.660;9.116;2024-03-08T07:05:28;0.40;;;0.40;;
15555;SDS011;7879;48.660;9.116;2024-03-08T07:07:57;0.30;;;0.30;;
15555;SDS011;7879;48.660;9.116;2024-03-08T07:10:24;0.30;;;0.30;;
15555;SDS011;7879;48.660;9.116;2024-03-08T07:12:52;0.30;;;0.30;;
15555;SDS011;7879;48.660;9.116;2024-03-08T07:15:21;0.30;;;0.30;;
15555;SDS011;7879;48.660;9.116;2024-03-08T07:17:49;0.30;;;0.30;;
15555;SDS011;7879;48.660;9.116;2024-03-08T07:20:19;0.30;;;0.30;;
15555;SDS011;7879;48.660;9.116;2024-03-08T07:22:47;0.30;;;0.30;;
15555;SDS011;7879;48.660;9.116;2024-03-08T07:25:17;0.30;;;0.30;;
15555;SDS011;7879;48.660;9.116;2024-03-08T07:27:48;0.30;;;0.30;;
15555;SDS011;7879;48.660;9.116;2024-03-08T07:30:16;0.30;;;0.30;;
15555;SDS011;7879;48.660;9.116;2024-03-08T07:33:03;0.30;;;0.30;;
15555;SDS011;7879;48.660;9.116;2024-03-08T07:35:31;0.30;;;0.30;;
15555;SDS011;7879;48.660;9.116;2024-03-08T07:37:57;0.30;;;0.30;;
15555;SDS011;7879;48.660;9.116;2024-03-08T07:40:26;0.25;;;0.25;;
15555;SDS011;7879;48.660;9.116;2024-03-08T07:42:53;0.20;;;0.20;;
15555;SDS011;7879;48.660;9.116;2024-03-08T07:45:20;0.20;;;0.20;;
15555;SDS011;7879;48.660;9.116;2024-03-08T07:47:48;0.20;;;0.20;;
15555;SDS011;7879;48.660;9.116;2024-03-08T07:50:17;0.20;;;0.20;;
15555;SDS011;7879;48.660;9.116;2024-03-08T07:52:48;0.20;;;0.20;;
15555;SDS011;7879;48.660;9.116;2024-03-08T07:55:15;0.22;;;0.22;;
15555;SDS011;7879;48.660;9.116;2024-03-08T07:57:42;0.30;;;0.30;;
15555;SDS011;7879;48.660;9.116;2024-03-08T08:00:09;0.30;;;0.30;;
15555;SDS011;7879;48.660;9.116;2024-03-08T08:02:37;0.30;;;0.30;;
15555;SDS011;7879;48.660;9.116;2024-03-08T08:05:06;0.30;;;0.30;;
15555;SDS011;7879;48.660;9.116;2024-03-08T08:07:33;0.22;;;0.22;;
15555;SDS011;7879;48.660;9.116;2024-03-08T08:10:00;0.20;;;0.20;;
15555;SDS011;7879;48.660;9.116;2024-03-08T08:12:27;0.20;;;0.20;;
15555;SDS011;7879;48.660;9.116;2024-03-08T08:14:55;0.20;;;0.20;;
15555;SDS011;7879;48.660;9.116;2024-03-08T08:17:22;0.20;;;0.20;;
15555;SDS011;7879;48.660;9.116;2024-03-08T08:19:49;0.17;;;0.17;;
15555;SDS011;7879;48.660;9.116;2024-03-08T08:22:17;0.25;;;0.25;;
15555;SDS011;7879;48.660;9.116;2024-03-08T08:24:44;0.30;;;0.30;;
15555;SDS011;7879;48.660;9.116;2024-03-08T08:27:11;0.20;;;0.20;;
15555;SDS011;7879;48.660;9.116;2024-03-08T08:29:38;0.30;;;0.30;;
15555;SDS011;7879;48.660;9.116;2024-03-08T08:32:06;0.30;;;0.30;;
15555;SDS011;7879;48.660;9.116;2024-03-08T08:34:33;0.20;;;0.20;;
15555;SDS011;7879;48.660;9.116;2024-03-08T08:36:59;0.20;;;0.20;;
15555;SDS011;7879;48.660;9.116;2024-03-08T08:39:27;0.30;;;0.30;;
15555;SDS011;7879;48.660;9.116;2024-03-08T08:41:54;0.30;;;0.30;;
15555;SDS011;7879;48.660;9.116;2024-03-08T08:44:21;0.20;;;0.20;;
15555;SDS011;7879;48.660;9.116;2024-03-08T08:46:48;0.30;;;0.30;;
15555;SDS011;7879;48.660;9.116;2024-03-08T08:49:18;0.20;;;0.20;;
15555;SDS011;7879;48.660;9.116;2024-03-08T08:51:50;0.20;;;0.20;;
15555;SDS011;7879;48.660;9.116;2024-03-08T08:54:18;0.20;;;0.20;;
15555;SDS011;7879;48.660;9.116;2024-03-08T08:56:45;0.30;;;0.30;;
15555;SDS011;7879;48.660;9.116;2024-03-08T08:59:12;0.30;;;0.30;;
15555;SDS011;7879;48.660;9.116;2024-03-08T09:01:47;0.20;;;0.20;;
15555;SDS011;7879;48.660;9.116;2024-03-08T09:04:14;0.20;;;0.20;;
15555;SDS011;7879;48.660;9.116;2024-03-08T09:06:41;0.20;;;0.20;;
15555;SDS011;7879;48.660;9.116;2024-03-08T09:09:08;0.20;;;0.20;;
15555;SDS011;7879;48.660;9.116;2024-03-08T09:11:35;0.20;;;0.20;;
15555;SDS011;7879;48.660;9.116;2024-03-08T09:14:02;0.30;;;0.30;;
15555;SDS011;7879;48.660;9.116;2024-03-08T09:16:31;0.30;;;0.30;;
15555;SDS011;7879;48.660;9.116;2024-03-08T09:18:59;0.20;;;0.20;;
15555;SDS011;7879;48.660;9.116;2024-03-08T09:21:26;0.20;;;0.20;;
15555;SDS011;7879;48.660;9.116;2024-03-08T09:23:53;0.20;;;0.20;;
15555;SDS011;7879;48.660;9.116;2024-03-08T09:26:20;0.20;;;0.20;;
15555;SDS011;7879;48.660;9.116;2024-03-08T09:28:55;0.20;;;0.20;;
15555;SDS011;7879;48.660;9.116;2024-03-08T09:31:22;0.22;;;0.22;;
15555;SDS011;7879;48.660;9.116;2024-03-08T09:33:49;0.30;;;0.30;;
15555;SDS011;7879;48.660;9.116;2024-03-08T09:36:17;0.20;;;0.20;;
15555;SDS011;7879;48.660;9.116;2024-03-08T09:38:44;0.30;;;0.30;;
15555;SDS011;7879;48.660;9.116;2024-03-08T09:41:11;0.20;;;0.20;;
15555;SDS011;7879;48.660;9.116;2024-03-08T09:43:38;0.20;;;0.20;;
15555;SDS011;7879;48.660;9.116;2024-03-08T09:46:06;0.10;;;0.10;;
15555;SDS011;7879;48.660;9.116;2024-03-08T09:48:34;0.20;;;0.20;;
15555;SDS011;7879;48.660;9.116;2024-03-08T09:51:02;0.30;;;0.30;;
15555;SDS011;7879;48.660;9.116;2024-03-08T09:53:30;0.20;;;0.20;;
15555;SDS011;7879;48.660;9.116;2024-03-08T09:55:57;0.20;;;0.20;;
15555;SDS011;7879;48.660;9.116;2024-03-08T09:58:25;0.10;;;0.10;;
15555;SDS011;7879;48.660;9.116;2024-03-08T10:01:01;0.20;;;0.20;;
15555;SDS011;7879;48.660;9.116;2024-03-08T10:03:31;0.30;;;0.30;;
15555;SDS011;7879;48.660;9.116;2024-03-08T10:06:01;0.22;;;0.22;;
15555;SDS011;7879;48.660;9.116;2024-03-08T10:08:28;0.15;;;0.15;;
15555;SDS011;7879;48.660;9.116;2024-03-08T10:10:56;0.20;;;0.20;;
15555;SDS011;7879;48.660;9.116;2024-03-08T10:13:26;0.20;;;0.20;;
15555;SDS011;7879;48.660;9.116;2024-03-08T10:15:54;0.20;;;0.20;;
15555;SDS011;7879;48.660;9.116;2024-03-08T10:18:21;0.15;;;0.15;;
15555;SDS011;7879;48.660;9.116;2024-03-08T10:21:01;0.10;;;0.10;;
15555;SDS011;7879;48.660;9.116;2024-03-08T10:23:30;0.20;;;0.20;;
15555;SDS011;7879;48.660;9.116;2024-03-08T10:25:59;0.20;;;0.20;;
15555;SDS011;7879;48.660;9.116;2024-03-08T10:28:42;0.10;;;0.10;;
15555;SDS011;7879;48.660;9.116;2024-03-08T10:31:11;0.20;;;0.20;;
15555;SDS011;7879;48.660;9.116;2024-03-08T10:33:41;0.30;;;0.30;;
15555;SDS011;7879;48.660;9.116;2024-03-08T10:36:08;0.20;;;0.20;;
15555;SDS011;7879;48.660;9.116;2024-03-08T10:38:39;0.20;;;0.20;;
15555;SDS011;7879;48.660;9.116;2024-03-08T10:41:08;0.10;;;0.10;;
15555;SDS011;7879;48.660;9.116;2024-03-08T10:43:40;0.30;;;0.30;;
15555;SDS011;7879;48.660;9.116;2024-03-08T10:49:47;0.20;;;0.20;;
15555;SDS011;7879;48.660;9.116;2024-03-08T10:52:20;0.10;;;0.10;;
15555;SDS011;7879;48.660;9.116;2024-03-08T10:54:51;0.30;;;0.30;;
15555;SDS011;7879;48.660;9.116;2024-03-08T10:57:20;0.20;;;0.20;;
15555;SDS011;7879;48.660;9.116;2024-03-08T10:59:50;0.10;;;0.10;;
15555;SDS011;7879;48.660;9.116;2024-03-08T11:02:20;0.30;;;0.30;;
15555;SDS011;7879;48.660;9.116;2024-03-08T11:04:47;0.20;;;0.20;;
15555;SDS011;7879;48.660;9.116;2024-03-08T11:07:16;0.10;;;0.10;;
15555;SDS011;7879;48.660;9.116;2024-03-08T11:09:45;0.20;;;0.20;;
15555;SDS011;7879;48.660;9.116;2024-03-08T11:12:24;0.10;;;0.10;;
15555;SDS011;7879;48.660;9.116;2024-03-08T11:15:11;0.10;;;0.10;;
15555;SDS011;7879;48.660;9.116;2024-03-08T11:20:17;0.10;;;0.10;;
15555;SDS011;7879;48.660;9.116;2024-03-08T11:22:48;0.10;;;0.10;;
15555;SDS011;7879;48.660;9.116;2024-03-08T11:33:35;0.10;;;0.10;;
15555;SDS011;7879;48.660;9.116;2024-03-08T11:38:46;0.10;;;0.10;;
15555;SDS011;7879;48.660;9.116;2024-03-08T11:41:19;0.10;;;0.10;;
15555;SDS011;7879;48.660;9.116;2024-03-08T11:43:48;0.10;;;0.10;;
15555;SDS011;7879;48.660;9.116;2024-03-08T11:46:16;0.10;;;0.10;;
15555;SDS011;7879;48.660;9.116;2024-03-08T11:48:47;0.10;;;0.10;;
15555;SDS011;7879;48.660;9.116;2024-03-08T11:51:14;0.10;;;0.10;;
15555;SDS011;7879;48.660;9.116;2024-03-08T11:53:42;0.10;;;0.10;;
15555;SDS011;7879;48.660;9.116;2024-03-08T11:56:13;0.10;;;0.10;;
15555;SDS011;7879;48.660;9.116;2024-03-08T11:58:40;0.00;;;0.00;;
15555;SDS011;7879;48.660;9.116;2024-03-08T12:01:08;0.00;;;0.00;;
15555;SDS011;7879;48.660;9.116;2024-03-08T12:03:40;0.00;;;0.00;;
15555;SDS011;7879;48.660;9.116;2024-03-08T12:06:11;0.00;;;0.00;;
15555;SDS011;7879;48.660;9.116;2024-03-08T12:08:39;0.00;;;0.00;;
15555;SDS011;7879;48.660;9.116;2024-03-08T12:11:06;0.00;;;0.00;;
15555;SDS011;7879;48.660;9.116;2024-03-08T12:13:36;0.00;;;0.00;;
15555;SDS011;7879;48.660;9.116;2024-03-08T12:16:04;0.00;;;0.00;;
15555;SDS011;7879;48.660;9.116;2024-03-08T12:18:35;0.00;;;0.00;;
15555;SDS011;7879;48.660;9.116;2024-03-08T12:21:10;0.00;;;0.00;;
15555;SDS011;7879;48.660;9.116;2024-03-08T12:23:40;0.00;;;0.00;;
15555;SDS011;7879;48.660;9.116;2024-03-08T12:26:16;0.00;;;0.00;;
15555;SDS011;7879;48.660;9.116;2024-03-08T12:28:50;0.00;;;0.00;;
15555;SDS011;7879;48.660;9.116;2024-03-08T12:31:18;0.00;;;0.00;;
15555;SDS011;7879;48.660;9.116;2024-03-08T12:33:54;0.00;;;0.00;;
15555;SDS011;7879;48.660;9.116;2024-03-08T12:36:25;0.00;;;0.00;;
15555;SDS011;7879;48.660;9.116;2024-03-08T12:38:53;0.00;;;0.00;;
15555;SDS011;7879;48.660;9.116;2024-03-08T12:41:21;0.00;;;0.00;;
15555;SDS011;7879;48.660;9.116;2024-03-08T12:43:48;0.00;;;0.00;;
15555;SDS011;7879;48.660;9.116;2024-03-08T12:46:19;0.00;;;0.00;;
15555;SDS011;7879;48.660;9.116;2024-03-08T12:48:47;0.00;;;0.00;;
15555;SDS011;7879;48.660;9.116;2024-03-08T12:51:18;0.10;;;0.10;;
15555;SDS011;7879;48.660;9.116;2024-03-08T12:53:46;0.10;;;0.10;;
15555;SDS011;7879;48.660;9.116;2024-03-08T12:56:16;0.10;;;0.10;;
15555;SDS011;7879;48.660;9.116;2024-03-08T12:58:54;0.10;;;0.10;;
15555;SDS011;7879;48.660;9.116;2024-03-08T13:01:22;0.10;;;0.10;;
15555;SDS011;7879;48.660;9.116;2024-03-08T13:03:49;0.13;;;0.13;;
15555;SDS011;7879;48.660;9.116;2024-03-08T13:06:16;0.10;;;0.10;;
15555;SDS011;7879;48.660;9.116;2024-03-08T13:08:43;0.10;;;0.10;;
15555;SDS011;7879;48.660;9.116;2024-03-08T13:11:10;0.10;;;0.10;;
15555;SDS011;7879;48.660;9.116;2024-03-08T13:13:38;0.20;;;0.20;;
15555;SDS011;7879;48.660;9.116;2024-03-08T13:16:06;0.10;;;0.10;;
15555;SDS011;7879;48.660;9.116;2024-03-08T13:18:35;0.13;;;0.13;;
15555;SDS011;7879;48.660;9.116;2024-03-08T13:21:02;0.17;;;0.17;;
15555;SDS011;7879;48.660;9.116;2024-03-08T13:23:34;0.10;;;0.10;;
15555;SDS011;7879;48.660;9.116;2024-03-08T13:26:07;0.20;;;0.20;;
15555;SDS011;7879;48.660;9.116;2024-03-08T13:28:35;0.10;;;0.10;;
15555;SDS011;7879;48.660;9.116;2024-03-08T13:31:05;0.10;;;0.10;;
15555;SDS011;7879;48.660;9.116;2024-03-08T13:33:33;0.10;;;0.10;;
15555;SDS011;7879;48.660;9.116;2024-03-08T13:36:03;0.10;;;0.10;;
15555;SDS011;7879;48.660;9.116;2024-03-08T13:38:35;0.20;;;0.20;;
15555;SDS011;7879;48.660;9.116;2024-03-08T13:41:03;0.10;;;0.10;;
15555;SDS011;7879;48.660;9.116;2024-03-08T13:43:30;0.20;;;0.20;;
15555;SDS011;7879;48.660;9.116;2024-03-08T13:46:00;0.10;;;0.10;;
15555;SDS011;7879;48.660;9.116;2024-03-08T13:48:27;0.20;;;0.20;;
15555;SDS011;7879;48.660;9.116;2024-03-08T13:50:54;0.10;;;0.10;;
15555;SDS011;7879;48.660;9.116;2024-03-08T13:53:23;0.20;;;0.20;;
15555;SDS011;7879;48.660;9.116;2024-03-08T13:55:50;0.10;;;0.10;;
15555;SDS011;7879;48.660;9.116;2024-03-08T13:58:17;0.15;;;0.15;;
15555;SDS011;7879;48.660;9.116;2024-03-08T14:00:44;0.10;;;0.10;;
15555;SDS011;7879;48.660;9.116;2024-03-08T14:03:13;0.10;;;0.10;;
15555;SDS011;7879;48.660;9.116;2024-03-08T14:05:41;0.17;;;0.17;;
15555;SDS011;7879;48.660;9.116;2024-03-08T14:08:09;0.10;;;0.10;;
15555;SDS011;7879;48.660;9.116;2024-03-08T14:10:38;0.20;;;0.20;;
15555;SDS011;7879;48.660;9.116;2024-03-08T14:13:05;0.10;;;0.10;;
15555;SDS011;7879;48.660;9.116;2024-03-08T14:15:33;0.20;;;0.20;;
15555;SDS011;7879;48.660;9.116;2024-03-08T14:18:01;0.10;;;0.10;;
15555;SDS011;7879;48.660;9.116;2024-03-08T14:20:28;0.20;;;0.20;;
15555;SDS011;7879;48.660;9.116;2024-03-08T14:22:55;0.10;;;0.10;;
15555;SDS011;7879;48.660;9.116;2024-03-08T14:25:23;0.20;;;0.20;;
15555;SDS011;7879;48.660;9.116;2024-03-08T14:27:51;0.10;;;0.10;;
15555;SDS011;7879;48.660;9.116;2024-03-08T14:30:20;0.20;;;0.20;;
15555;SDS011;7879;48.660;9.116;2024-03-08T14:33:05;0.10;;;0.10;;
15555;SDS011;7879;48.660;9.116;2024-03-08T14:35:32;0.20;;;0.20;;
15555;SDS011;7879;48.660;9.116;2024-03-08T14:38:00;0.10;;;0.10;;
15555;SDS011;7879;48.660;9.116;2024-03-08T14:40:27;0.10;;;0.10;;
15555;SDS011;7879;48.660;9.116;2024-03-08T14:42:54;0.10;;;0.10;;
15555;SDS011;7879;48.660;9.116;2024-03-08T14:45:22;0.10;;;0.10;;
15555;SDS011;7879;48.660;9.116;2024-03-08T14:47:50;0.20;;;0.20;;
15555;SDS011;7879;48.660;9.116;2024-03-08T14:50:18;0.10;;;0.10;;
15555;SDS011;7879;48.660;9.116;2024-03-08T14:52:45;0.20;;;0.20;;
15555;SDS011;7879;48.660;9.116;2024-03-08T14:55:15;0.10;;;0.10;;
15555;SDS011;7879;48.660;9.116;2024-03-08T14:57:42;0.20;;;0.20;;
15555;SDS011;7879;48.660;9.116;2024-03-08T15:00:13;0.10;;;0.10;;
15555;SDS011;7879;48.660;9.116;2024-03-08T15:02:43;0.20;;;0.20;;
15555;SDS011;7879;48.660;9.116;2024-03-08T15:05:10;0.10;;;0.10;;
15555;SDS011;7879;48.660;9.116;2024-03-08T15:07:40;0.20;;;0.20;;
15555;SDS011;7879;48.660;9.116;2024-03-08T15:10:09;0.10;;;0.10;;
15555;SDS011;7879;48.660;9.116;2024-03-08T15:12:44;0.20;;;0.20;;
15555;SDS011;7879;48.660;9.116;2024-03-08T15:15:17;0.10;;;0.10;;
15555;SDS011;7879;48.660;9.116;2024-03-08T15:17:44;0.20;;;0.20;;
15555;SDS011;7879;48.660;9.116;2024-03-08T15:20:13;0.10;;;0.10;;
15555;SDS011;7879;48.660;9.116;2024-03-08T15:22:55;0.15;;;0.15;;
15555;SDS011;7879;48.660;9.116;2024-03-08T15:25:25;0.10;;;0.10;;